createdAt,value
2023-02-02T00:00:57.108Z,79.70
2023-02-02T00:03:23.881Z,79.80
2023-02-02T00:05:52.070Z,79.80
2023-02-02T00:08:20.478Z,79.80
2023-02-02T00:10:47.573Z,79.70
2023-02-02T00:13:14.616Z,79.70
2023-02-02T00:15:41.312Z,79.80
2023-02-02T00:18:08.004Z,79.80
2023-02-02T00:20:34.671Z,79.80
2023-02-02T00:23:01.360Z,79.80
2023-02-02T00:25:28.030Z,79.90
2023-02-02T00:27:54.714Z,79.80
2023-02-02T00:30:21.428Z,79.70
2023-02-02T00:32:48.031Z,79.70
2023-02-02T00:35:15.415Z,79.70
2023-02-02T00:37:42.268Z,79.70
2023-02-02T00:40:11.526Z,79.70
2023-02-02T00:42:38.269Z,79.60
2023-02-02T00:45:05.376Z,79.50
2023-02-02T00:47:32.001Z,79.50
2023-02-02T00:49:58.598Z,79.40
2023-02-02T00:52:25.300Z,79.40
2023-02-02T00:54:51.958Z,79.30
2023-02-02T00:57:30.535Z,79.40
2023-02-02T01:00:00.065Z,79.40
2023-02-02T01:02:26.874Z,79.30
2023-02-02T01:04:53.613Z,79.40
2023-02-02T01:07:20.226Z,79.40
2023-02-02T01:09:46.842Z,79.40
2023-02-02T01:12:13.513Z,79.30
2023-02-02T01:14:40.149Z,79.40
2023-02-02T01:17:06.789Z,79.40
2023-02-02T01:19:33.601Z,79.50
2023-02-02T01:22:01.809Z,79.40
2023-02-02T01:25:16.348Z,79.50
2023-02-02T01:28:00.565Z,79.50
2023-02-02T01:30:27.190Z,79.50
2023-02-02T01:32:53.826Z,79.70
2023-02-02T01:35:20.462Z,79.60
2023-02-02T01:37:47.072Z,79.70
2023-02-02T01:40:13.929Z,79.70
2023-02-02T01:42:40.619Z,79.70
2023-02-02T01:45:14.734Z,79.80
2023-02-02T01:47:44.318Z,79.70
2023-02-02T01:50:12.043Z,79.80
2023-02-02T01:52:38.845Z,79.80
2023-02-02T01:55:10.018Z,79.90
2023-02-02T01:58:08.259Z,79.80
2023-02-02T02:03:20.137Z,79.90
2023-02-02T02:06:08.829Z,79.80
2023-02-02T02:08:38.605Z,79.80
2023-02-02T02:11:05.557Z,79.80
2023-02-02T02:13:32.807Z,79.80
2023-02-02T02:16:06.084Z,79.80
2023-02-02T02:18:48.142Z,79.80
2023-02-02T02:21:29.467Z,79.80
2023-02-02T02:24:39.419Z,79.80
2023-02-02T02:30:13.665Z,79.80
2023-02-02T02:32:43.071Z,79.80
2023-02-02T02:35:42.827Z,79.80
2023-02-02T02:38:25.649Z,79.80
2023-02-02T02:40:55.329Z,79.80
2023-02-02T02:43:27.802Z,79.80
2023-02-02T02:45:54.421Z,79.80
2023-02-02T02:48:21.147Z,79.80
2023-02-02T02:50:47.915Z,79.90
2023-02-02T02:53:16.677Z,79.90
2023-02-02T02:56:07.338Z,80.00
2023-02-02T02:59:09.969Z,79.90
2023-02-02T03:01:39.163Z,79.80
2023-02-02T03:04:13.004Z,79.90
2023-02-02T03:07:17.599Z,79.90
2023-02-02T03:09:44.441Z,80.10
2023-02-02T03:12:12.235Z,80.00
2023-02-02T03:14:38.915Z,80.00
2023-02-02T03:17:05.540Z,80.10
2023-02-02T03:19:32.198Z,80.00
2023-02-02T03:21:58.871Z,80.10
2023-02-02T03:24:25.484Z,80.10
2023-02-02T03:26:52.122Z,80.10
2023-02-02T03:29:18.873Z,80.10
2023-02-02T03:31:45.861Z,80.10
2023-02-02T03:34:12.505Z,80.20
2023-02-02T03:36:39.186Z,80.20
2023-02-02T03:39:05.900Z,80.30
2023-02-02T03:41:32.508Z,80.30
2023-02-02T03:43:59.177Z,80.40
2023-02-02T03:46:25.860Z,80.40
2023-02-02T03:48:52.487Z,80.40
2023-02-02T03:51:19.201Z,80.30
2023-02-02T03:53:46.007Z,80.30
2023-02-02T03:56:12.790Z,80.30
2023-02-02T03:58:39.419Z,80.30
2023-02-02T04:01:07.324Z,80.30
2023-02-02T04:03:34.048Z,80.40
2023-02-02T04:06:01.100Z,80.40
2023-02-02T04:08:27.826Z,80.50
2023-02-02T04:10:54.684Z,80.50
2023-02-02T04:13:21.403Z,80.40
2023-02-02T04:15:48.111Z,80.40
2023-02-02T04:18:14.770Z,80.40
2023-02-02T04:20:41.441Z,80.40
2023-02-02T04:23:08.061Z,80.50
2023-02-02T04:25:34.683Z,80.40
2023-02-02T04:28:01.309Z,80.40
2023-02-02T04:30:28.035Z,80.50
2023-02-02T04:32:54.971Z,80.50
2023-02-02T04:35:21.697Z,80.50
2023-02-02T04:37:48.667Z,80.60
2023-02-02T04:40:15.416Z,80.50
2023-02-02T04:42:42.059Z,80.60
2023-02-02T04:45:08.912Z,80.60
2023-02-02T04:47:35.583Z,80.60
2023-02-02T04:50:02.257Z,80.60
2023-02-02T04:52:29.320Z,80.60
2023-02-02T04:54:55.969Z,80.70
2023-02-02T04:57:22.651Z,80.70
2023-02-02T04:59:49.313Z,80.60
2023-02-02T05:02:15.984Z,80.60
2023-02-02T05:04:42.704Z,80.60
2023-02-02T05:07:09.404Z,80.70
2023-02-02T05:09:35.996Z,80.60
2023-02-02T05:12:02.686Z,80.60
2023-02-02T05:14:29.351Z,80.60
2023-02-02T05:16:56.045Z,80.60
2023-02-02T05:19:22.711Z,80.50
2023-02-02T05:21:51.009Z,80.50
2023-02-02T05:24:18.087Z,80.50
2023-02-02T05:26:44.690Z,80.60
2023-02-02T05:29:11.357Z,80.50
2023-02-02T05:31:38.064Z,80.50
2023-02-02T05:34:04.715Z,80.50
2023-02-02T05:36:31.315Z,80.50
2023-02-02T05:38:57.967Z,80.50
2023-02-02T05:41:24.617Z,80.40
2023-02-02T05:43:51.245Z,80.40
2023-02-02T05:46:17.928Z,80.60
2023-02-02T05:48:44.608Z,80.50
2023-02-02T05:51:28.001Z,80.60
2023-02-02T05:53:54.684Z,80.70
2023-02-02T05:56:21.462Z,80.80
2023-02-02T05:58:48.169Z,80.90
2023-02-02T06:01:14.974Z,81.00
2023-02-02T06:03:41.772Z,81.10
2023-02-02T06:06:08.983Z,81.00
2023-02-02T06:08:36.178Z,81.00
2023-02-02T06:11:16.498Z,81.00
2023-02-02T06:13:45.756Z,81.00
2023-02-02T06:16:12.758Z,81.20
2023-02-02T06:18:39.506Z,81.10
2023-02-02T06:21:23.427Z,81.10
2023-02-02T06:23:54.735Z,81.20
2023-02-02T06:26:21.887Z,81.10
2023-02-02T06:28:50.313Z,81.30
2023-02-02T06:31:18.300Z,81.50
2023-02-02T06:33:48.764Z,81.50
2023-02-02T06:36:15.530Z,81.50
2023-02-02T06:38:42.156Z,81.50
2023-02-02T06:41:12.235Z,81.50
2023-02-02T06:43:38.943Z,81.60
2023-02-02T06:46:05.587Z,81.50
2023-02-02T06:48:32.378Z,81.70
2023-02-02T06:50:59.340Z,81.80
2023-02-02T06:53:26.536Z,82.00
2023-02-02T06:55:56.569Z,82.00
2023-02-02T06:58:23.445Z,82.10
2023-02-02T07:00:50.119Z,82.10
2023-02-02T07:03:16.935Z,82.20
2023-02-02T07:05:43.738Z,82.10
2023-02-02T07:08:12.926Z,82.10
2023-02-02T07:11:13.278Z,82.20
2023-02-02T07:13:26.353Z,82.20
2023-02-02T07:15:53.007Z,82.20
2023-02-02T07:18:19.654Z,82.10
2023-02-02T07:20:46.319Z,82.20
2023-02-02T07:23:12.927Z,82.10
2023-02-02T07:25:39.593Z,82.00
2023-02-02T07:28:06.296Z,82.00
2023-02-02T07:30:32.971Z,82.10
2023-02-02T07:32:59.690Z,81.90
2023-02-02T07:35:26.636Z,82.00
2023-02-02T07:37:54.100Z,81.90
2023-02-02T07:40:20.794Z,81.90
2023-02-02T07:42:47.862Z,81.90
2023-02-02T07:45:27.309Z,81.80
2023-02-02T07:47:58.526Z,81.90
2023-02-02T07:50:44.675Z,81.80
2023-02-02T07:53:11.354Z,81.90
2023-02-02T07:55:38.096Z,81.80
2023-02-02T07:58:04.746Z,81.80
2023-02-02T08:00:31.470Z,81.80
2023-02-02T08:02:58.157Z,81.80
2023-02-02T08:05:25.031Z,81.80
2023-02-02T08:07:51.880Z,81.80
2023-02-02T08:10:18.642Z,81.70
2023-02-02T08:12:45.288Z,81.70
2023-02-02T08:15:12.009Z,81.70
2023-02-02T08:17:38.793Z,81.70
2023-02-02T08:20:08.860Z,81.60
2023-02-02T08:22:35.517Z,81.60
2023-02-02T08:25:02.410Z,81.50
2023-02-02T08:27:29.097Z,81.50
2023-02-02T08:29:55.830Z,81.40
2023-02-02T08:32:22.479Z,81.50
2023-02-02T08:34:49.589Z,81.50
2023-02-02T08:37:16.279Z,81.70
2023-02-02T08:39:42.994Z,81.50
2023-02-02T08:42:09.774Z,81.40
2023-02-02T08:44:45.212Z,81.40
2023-02-02T08:47:23.180Z,81.20
2023-02-02T08:49:50.168Z,81.10
2023-02-02T08:52:16.799Z,81.00
2023-02-02T08:54:43.388Z,80.90
2023-02-02T08:57:10.102Z,81.10
2023-02-02T08:59:36.715Z,81.20
2023-02-02T09:02:03.426Z,81.10
2023-02-02T09:04:30.129Z,80.80
2023-02-02T09:06:56.730Z,80.40
2023-02-02T09:09:23.377Z,80.00
2023-02-02T09:11:50.050Z,79.90
2023-02-02T09:14:16.658Z,79.90
2023-02-02T09:16:43.474Z,80.00
2023-02-02T09:19:11.146Z,80.10
2023-02-02T09:21:37.827Z,80.00
2023-02-02T09:24:11.950Z,79.80
2023-02-02T09:26:38.744Z,79.40
2023-02-02T09:29:06.191Z,79.20
2023-02-02T09:31:34.324Z,79.00
2023-02-02T09:34:02.262Z,78.70
2023-02-02T09:36:28.994Z,78.90
2023-02-02T09:38:55.727Z,78.90
2023-02-02T09:41:37.276Z,78.60
2023-02-02T09:44:12.890Z,78.20
2023-02-02T09:46:47.173Z,77.60
2023-02-02T09:49:23.054Z,77.20
2023-02-02T09:51:59.793Z,77.10
2023-02-02T09:54:39.033Z,77.40
2023-02-02T09:57:08.783Z,77.00
2023-02-02T09:59:35.920Z,77.10
2023-02-02T10:02:17.302Z,75.10
2023-02-02T10:04:44.872Z,75.90
2023-02-02T10:07:19.710Z,74.80
2023-02-02T10:09:53.956Z,73.50
2023-02-02T10:12:53.286Z,72.20
2023-02-02T10:15:33.513Z,70.70
2023-02-02T10:18:18.080Z,68.90
2023-02-02T10:20:44.779Z,67.80
2023-02-02T10:23:36.199Z,67.50
2023-02-02T10:26:23.170Z,64.90
2023-02-02T10:29:02.908Z,64.40
2023-02-02T10:31:38.913Z,64.00
2023-02-02T10:34:08.373Z,62.90
2023-02-02T10:36:57.827Z,61.70
2023-02-02T10:39:36.704Z,61.30
2023-02-02T10:42:24.831Z,60.40
2023-02-02T10:44:54.676Z,60.40
2023-02-02T10:47:26.822Z,60.20
2023-02-02T10:50:12.465Z,59.90
2023-02-02T10:52:40.622Z,60.30
2023-02-02T10:56:00.095Z,61.30
2023-02-02T10:58:29.438Z,61.10
2023-02-02T11:00:56.446Z,62.20
2023-02-02T11:03:32.592Z,63.00
2023-02-02T11:06:00.987Z,63.40
2023-02-02T11:08:41.974Z,63.80
2023-02-02T11:11:24.899Z,64.50
2023-02-02T11:14:02.357Z,64.20
2023-02-02T11:16:42.637Z,63.90
2023-02-02T11:19:19.347Z,63.90
2023-02-02T11:21:53.277Z,64.20
2023-02-02T11:24:34.972Z,64.60
2023-02-02T11:27:14.852Z,65.00
2023-02-02T11:29:44.703Z,65.90
2023-02-02T11:32:24.042Z,66.40
2023-02-02T11:35:07.951Z,67.10
2023-02-02T11:37:35.498Z,67.40
2023-02-02T11:40:24.340Z,67.50
2023-02-02T11:42:51.680Z,68.10
2023-02-02T11:45:19.657Z,68.20
2023-02-02T11:47:46.435Z,67.60
2023-02-02T11:50:26.988Z,67.80
2023-02-02T11:52:53.834Z,67.90
2023-02-02T11:55:27.856Z,68.10
2023-02-02T11:58:26.688Z,68.40
2023-02-02T12:01:01.309Z,68.80
2023-02-02T12:03:31.012Z,69.10
2023-02-02T12:05:58.867Z,69.40
2023-02-02T12:08:25.577Z,69.60
2023-02-02T12:11:02.066Z,69.70
2023-02-02T12:13:35.611Z,69.80
2023-02-02T12:16:19.386Z,69.70
2023-02-02T12:19:10.606Z,70.00
2023-02-02T12:21:43.102Z,70.10
2023-02-02T12:24:29.748Z,70.20
2023-02-02T12:27:04.293Z,70.60
2023-02-02T12:29:53.069Z,70.40
2023-02-02T12:32:42.359Z,70.90
2023-02-02T12:35:40.905Z,70.70
2023-02-02T12:38:52.230Z,71.00
2023-02-02T12:41:27.946Z,70.70
2023-02-02T12:44:18.760Z,70.60
2023-02-02T12:46:54.630Z,70.70
2023-02-02T12:49:56.946Z,70.50
2023-02-02T12:52:40.312Z,70.40
2023-02-02T12:55:36.402Z,70.60
2023-02-02T12:58:27.833Z,70.00
2023-02-02T13:01:06.921Z,70.30
2023-02-02T13:03:59.543Z,70.00
2023-02-02T13:06:46.580Z,69.70
2023-02-02T13:09:15.683Z,69.80
2023-02-02T13:11:53.120Z,69.90
2023-02-02T13:14:31.543Z,69.80
2023-02-02T13:17:01.251Z,69.80
2023-02-02T13:19:54.121Z,69.90
2023-02-02T13:22:34.404Z,70.30
2023-02-02T13:25:02.093Z,70.10
2023-02-02T13:27:29.589Z,70.20
2023-02-02T13:30:00.655Z,70.50
2023-02-02T13:32:38.272Z,70.70
2023-02-02T13:35:11.041Z,70.80
2023-02-02T13:37:55.047Z,70.90
2023-02-02T13:40:26.777Z,71.40
2023-02-02T13:42:58.095Z,71.90
2023-02-02T13:45:42.105Z,72.20
2023-02-02T13:48:15.117Z,72.90
2023-02-02T13:51:05.933Z,72.70
2023-02-02T13:53:47.282Z,73.00
2023-02-02T13:56:28.586Z,72.90
2023-02-02T13:59:16.524Z,72.90
2023-02-02T14:01:44.877Z,72.70
2023-02-02T14:04:22.161Z,72.90
2023-02-02T14:06:58.748Z,73.10
2023-02-02T14:09:27.773Z,73.40
2023-02-02T14:11:59.592Z,73.30
2023-02-02T14:14:26.239Z,73.70
2023-02-02T14:16:52.959Z,73.50
2023-02-02T14:19:34.525Z,73.80
2023-02-02T14:22:46.060Z,73.80
2023-02-02T14:25:30.783Z,74.10
2023-02-02T14:27:58.725Z,73.80
2023-02-02T14:30:30.896Z,73.60
2023-02-02T14:33:22.214Z,73.70
2023-02-02T14:35:48.791Z,73.80
2023-02-02T14:38:22.045Z,74.00
2023-02-02T14:40:57.581Z,74.10
2023-02-02T14:43:47.624Z,74.30
2023-02-02T14:46:14.315Z,74.70
2023-02-02T14:48:44.490Z,74.30
2023-02-02T14:51:18.211Z,74.50
2023-02-02T14:54:06.655Z,74.90
2023-02-02T14:56:50.163Z,74.60
2023-02-02T14:59:27.160Z,75.10
2023-02-02T15:02:18.004Z,74.60
2023-02-02T15:04:44.620Z,75.00
2023-02-02T15:07:23.365Z,75.00
2023-02-02T15:09:53.822Z,75.00
2023-02-02T15:12:35.341Z,75.30
2023-02-02T15:15:27.454Z,75.70
2023-02-02T15:18:11.702Z,76.20
2023-02-02T15:20:49.216Z,75.80
2023-02-02T15:23:15.889Z,75.70
2023-02-02T15:25:56.331Z,75.70
2023-02-02T15:28:41.392Z,76.00
2023-02-02T15:31:21.161Z,76.40
2023-02-02T15:33:52.197Z,76.20
2023-02-02T15:36:26.925Z,76.50
2023-02-02T15:38:56.119Z,76.50
2023-02-02T15:41:32.133Z,77.00
2023-02-02T15:43:59.754Z,76.90
2023-02-02T15:46:31.770Z,77.20
2023-02-02T15:49:35.652Z,77.00
2023-02-02T15:52:22.762Z,77.60
2023-02-02T15:54:53.926Z,77.50
2023-02-02T15:57:32.007Z,77.30
2023-02-02T15:59:59.414Z,77.50
2023-02-02T16:02:34.284Z,77.40
2023-02-02T16:05:01.011Z,77.50
2023-02-02T16:07:32.087Z,77.50
2023-02-02T16:10:05.704Z,77.60
2023-02-02T16:12:32.770Z,77.70
2023-02-02T16:15:02.299Z,77.60
2023-02-02T16:17:30.776Z,77.60
2023-02-02T16:20:03.597Z,77.60
2023-02-02T16:22:30.242Z,77.80
2023-02-02T16:25:02.079Z,77.80
2023-02-02T16:27:29.944Z,77.70
2023-02-02T16:30:05.340Z,77.90
2023-02-02T16:32:37.095Z,78.00
2023-02-02T16:35:24.510Z,78.20
2023-02-02T16:37:52.615Z,78.30
2023-02-02T16:40:26.941Z,78.40
2023-02-02T16:43:06.455Z,78.30
2023-02-02T16:45:44.836Z,78.30
2023-02-02T16:48:35.713Z,78.40
2023-02-02T16:51:17.609Z,79.00
2023-02-02T16:54:16.581Z,78.50
2023-02-02T16:56:50.690Z,78.60
2023-02-02T16:59:17.506Z,78.60
2023-02-02T17:01:49.664Z,78.60
2023-02-02T17:04:31.068Z,78.70
2023-02-02T17:07:08.050Z,78.70
2023-02-02T17:09:44.891Z,78.70
2023-02-02T17:12:32.246Z,78.70
2023-02-02T17:15:02.064Z,78.80
2023-02-02T17:17:28.781Z,78.90
2023-02-02T17:19:55.428Z,78.90
2023-02-02T17:22:23.743Z,78.90
2023-02-02T17:24:51.027Z,78.90
2023-02-02T17:27:36.212Z,78.90
2023-02-02T17:30:03.570Z,79.00
2023-02-02T17:32:30.398Z,79.10
2023-02-02T17:34:57.215Z,79.10
2023-02-02T17:37:23.970Z,79.10
2023-02-02T17:39:52.613Z,79.30
2023-02-02T17:42:26.731Z,79.20
2023-02-02T17:44:53.489Z,79.20
2023-02-02T17:47:20.150Z,79.30
2023-02-02T17:49:46.819Z,79.40
2023-02-02T17:52:13.516Z,79.40
2023-02-02T17:54:40.322Z,79.40
2023-02-02T17:57:07.020Z,79.30
2023-02-02T17:59:33.703Z,79.30
2023-02-02T18:02:00.582Z,79.30
2023-02-02T18:04:27.406Z,79.30
2023-02-02T18:06:55.718Z,79.30
2023-02-02T18:09:33.693Z,79.30
2023-02-02T18:12:00.986Z,79.30
2023-02-02T18:14:27.855Z,79.30
2023-02-02T18:16:54.842Z,79.40
2023-02-02T18:19:23.764Z,79.40
2023-02-02T18:21:50.489Z,79.40
2023-02-02T18:24:18.771Z,79.40
2023-02-02T18:26:46.921Z,79.40
2023-02-02T18:29:13.608Z,79.40
2023-02-02T18:31:42.330Z,79.40
2023-02-02T18:34:13.512Z,79.40
2023-02-02T18:36:40.552Z,79.40
2023-02-02T18:39:08.056Z,79.40
2023-02-02T18:41:34.909Z,79.50
2023-02-02T18:44:08.066Z,79.50
2023-02-02T18:46:34.982Z,79.60
2023-02-02T18:49:02.252Z,79.60
2023-02-02T18:51:30.146Z,79.70
2023-02-02T18:53:59.047Z,79.90
2023-02-02T18:56:32.731Z,79.90
2023-02-02T18:58:59.372Z,80.00
2023-02-02T19:01:28.742Z,80.10
2023-02-02T19:04:03.116Z,80.20
2023-02-02T19:06:32.715Z,80.20
2023-02-02T19:08:59.492Z,80.30
2023-02-02T19:11:31.388Z,80.40
2023-02-02T19:13:59.198Z,80.50
2023-02-02T19:16:27.602Z,80.70
2023-02-02T19:19:21.651Z,80.70
2023-02-02T19:21:48.583Z,80.80
2023-02-02T19:24:16.473Z,81.10
2023-02-02T19:26:47.326Z,81.10
2023-02-02T19:29:19.427Z,81.20
2023-02-02T19:31:46.270Z,81.30
2023-02-02T19:34:15.609Z,81.20
2023-02-02T19:36:42.256Z,81.30
2023-02-02T19:39:13.549Z,81.30
2023-02-02T19:41:40.272Z,81.30
2023-02-02T19:44:20.526Z,81.40
2023-02-02T19:46:50.257Z,81.50
2023-02-02T19:49:19.645Z,81.40
2023-02-02T19:51:47.365Z,81.50
2023-02-02T19:54:27.336Z,81.40
2023-02-02T19:57:01.093Z,81.40
2023-02-02T19:59:32.279Z,81.30
2023-02-02T20:01:59.121Z,81.30
2023-02-02T20:04:26.983Z,81.30
2023-02-02T20:06:59.508Z,81.30
2023-02-02T20:09:28.714Z,81.40
2023-02-02T20:11:55.482Z,81.30
2023-02-02T20:14:28.995Z,81.30
2023-02-02T20:17:11.598Z,81.30
2023-02-02T20:19:40.821Z,81.40
2023-02-02T20:22:24.659Z,81.50
2023-02-02T20:24:51.302Z,81.50
2023-02-02T20:27:20.006Z,81.50
2023-02-02T20:29:47.647Z,81.50
2023-02-02T20:32:25.117Z,81.60
2023-02-02T20:34:52.576Z,81.60
2023-02-02T20:37:26.431Z,81.60
2023-02-02T20:40:02.565Z,81.70
2023-02-02T20:42:29.733Z,81.60
2023-02-02T20:44:56.440Z,81.80
2023-02-02T20:47:23.156Z,81.70
2023-02-02T20:49:49.843Z,81.90
2023-02-02T20:52:17.708Z,81.90
2023-02-02T20:54:44.458Z,82.00
2023-02-02T20:57:11.077Z,81.90
2023-02-02T20:59:38.017Z,81.90
2023-02-02T21:02:04.744Z,82.00
2023-02-02T21:04:31.555Z,82.00
2023-02-02T21:06:58.339Z,82.00
2023-02-02T21:09:25.576Z,82.10
2023-02-02T21:11:52.422Z,82.10
2023-02-02T21:14:19.080Z,82.20
2023-02-02T21:16:45.792Z,82.10
2023-02-02T21:19:12.597Z,82.20
2023-02-02T21:21:39.256Z,82.20
2023-02-02T21:24:06.004Z,82.20
2023-02-02T21:26:38.962Z,82.30
2023-02-02T21:29:05.724Z,82.40
2023-02-02T21:31:32.460Z,82.50
2023-02-02T21:33:59.161Z,82.40
2023-02-02T21:36:31.687Z,82.50
2023-02-02T21:39:37.422Z,82.50
2023-02-02T21:42:17.914Z,82.60
2023-02-02T21:44:46.447Z,82.60
2023-02-02T21:47:36.721Z,82.70
2023-02-02T21:50:17.393Z,82.70
2023-02-02T21:52:44.225Z,82.80
2023-02-02T21:55:25.837Z,82.80
2023-02-02T21:57:52.482Z,82.90
2023-02-02T22:00:31.782Z,83.00
2023-02-02T22:03:44.954Z,83.00
2023-02-02T22:06:17.775Z,83.20
2023-02-02T22:08:44.363Z,83.60
2023-02-02T22:11:30.520Z,83.30
2023-02-02T22:14:22.060Z,83.10
2023-02-02T22:16:53.465Z,83.20
2023-02-02T22:19:33.640Z,83.40
2023-02-02T22:22:23.731Z,83.30
2023-02-02T22:24:59.174Z,83.40
2023-02-02T22:27:27.346Z,83.50
2023-02-02T22:30:13.045Z,83.60
2023-02-02T22:32:39.688Z,83.80
2023-02-02T22:35:06.610Z,83.70
2023-02-02T22:37:33.263Z,83.90
2023-02-02T22:40:00.783Z,83.90
2023-02-02T22:42:27.755Z,84.00
2023-02-02T22:44:54.350Z,84.10
2023-02-02T22:47:20.991Z,84.10
2023-02-02T22:49:47.602Z,84.20
2023-02-02T22:52:14.214Z,84.20
2023-02-02T22:54:40.855Z,84.30
2023-02-02T22:57:07.497Z,84.30
2023-02-02T22:59:34.154Z,84.40
2023-02-02T23:02:00.777Z,84.30
2023-02-02T23:04:27.458Z,84.50
2023-02-02T23:06:54.075Z,84.40
2023-02-02T23:09:20.744Z,84.50
2023-02-02T23:11:49.365Z,84.50
2023-02-02T23:14:16.074Z,84.50
2023-02-02T23:16:42.723Z,84.50
2023-02-02T23:19:09.392Z,84.60
2023-02-02T23:21:36.023Z,84.50
2023-02-02T23:24:38.590Z,84.50
2023-02-02T23:27:05.245Z,84.50
2023-02-02T23:29:31.959Z,84.40
2023-02-02T23:31:58.668Z,84.30
2023-02-02T23:34:25.403Z,84.20
2023-02-02T23:36:52.017Z,84.20
2023-02-02T23:39:18.656Z,84.10
2023-02-02T23:41:45.277Z,84.00
2023-02-02T23:44:11.885Z,83.80
2023-02-02T23:46:38.587Z,83.70
2023-02-02T23:49:05.400Z,83.60
2023-02-02T23:51:32.202Z,83.40
2023-02-02T23:53:58.961Z,83.30
2023-02-02T23:56:25.651Z,83.20
2023-02-02T23:58:52.332Z,83.00
